createdAt,value
2019-01-28T00:00:58.842Z,93938.16
2019-01-28T00:03:28.398Z,93938.81
2019-01-28T00:05:57.832Z,93945.42
2019-01-28T00:08:27.288Z,93950.57
2019-01-28T00:10:56.769Z,93949.78
2019-01-28T00:13:26.366Z,93941.88
2019-01-28T00:15:55.869Z,93940.94
2019-01-28T00:18:25.382Z,93953.33
2019-01-28T00:20:54.890Z,93960.55
2019-01-28T00:23:24.387Z,93953.00
2019-01-28T00:25:53.875Z,93951.37
2019-01-28T00:28:23.400Z,93942.66
2019-01-28T00:30:52.889Z,93939.77
2019-01-28T00:33:22.385Z,93939.61
2019-01-28T00:35:51.872Z,93937.36
2019-01-28T00:38:21.792Z,93939.78
2019-01-28T00:40:51.385Z,93944.13
2019-01-28T00:43:20.875Z,93942.02
2019-01-28T00:45:50.351Z,93933.31
2019-01-28T00:48:19.909Z,93938.79
2019-01-28T00:50:49.419Z,93932.52
2019-01-28T00:53:18.928Z,93927.36
2019-01-28T00:55:48.430Z,93918.97
2019-01-28T00:58:17.917Z,93928.34
2019-01-28T01:00:47.504Z,93925.08
2019-01-28T01:03:17.028Z,93925.39
2019-01-28T01:05:46.639Z,93915.44
2019-01-28T01:08:16.163Z,93921.53
2019-01-28T01:10:45.638Z,93930.55
2019-01-28T01:13:15.139Z,93926.86
2019-01-28T01:15:44.621Z,93922.22
2019-01-28T01:18:14.151Z,93918.00
2019-01-28T01:20:43.626Z,93919.77
2019-01-28T01:23:13.098Z,93915.87
2019-01-28T01:25:42.656Z,93911.23
2019-01-28T01:28:12.203Z,93914.79
2019-01-28T01:30:41.713Z,93906.89
2019-01-28T01:33:11.247Z,93896.37
2019-01-28T01:35:40.783Z,93900.55
2019-01-28T01:38:12.000Z,93901.84
2019-01-28T01:40:41.570Z,93900.57
2019-01-28T01:43:11.068Z,93894.14
2019-01-28T01:45:40.550Z,93892.88
2019-01-28T01:48:10.019Z,93878.54
2019-01-28T01:50:39.497Z,93883.20
2019-01-28T01:53:09.035Z,93874.51
2019-01-28T01:55:38.574Z,93883.71
2019-01-28T01:58:08.054Z,93896.09
2019-01-28T02:00:37.627Z,93893.77
2019-01-28T02:03:07.134Z,93886.70
2019-01-28T02:05:36.600Z,93876.39
2019-01-28T02:08:06.069Z,93877.38
2019-01-28T02:10:35.508Z,93886.09
2019-01-28T02:13:05.096Z,93885.43
2019-01-28T02:15:34.615Z,93871.28
2019-01-28T02:18:04.127Z,93870.00
2019-01-28T02:20:33.592Z,93871.30
2019-01-28T02:23:04.409Z,93868.38
2019-01-28T02:25:34.018Z,93864.81
2019-01-28T02:28:03.531Z,93860.62
2019-01-28T02:30:33.003Z,93863.05
2019-01-28T02:33:02.528Z,93861.92
2019-01-28T02:35:32.045Z,93849.39
2019-01-28T02:38:01.524Z,93854.86
2019-01-28T02:40:30.995Z,93858.03
2019-01-28T02:43:00.476Z,93852.90
2019-01-28T02:45:29.980Z,93856.28
2019-01-28T02:47:59.467Z,93846.00
2019-01-28T02:50:28.977Z,93843.91
2019-01-28T02:52:58.460Z,93841.67
2019-01-28T02:55:28.425Z,93831.05
2019-01-28T02:57:57.980Z,93825.08
2019-01-28T03:00:27.457Z,93831.84
2019-01-28T03:02:56.923Z,93827.84
2019-01-28T03:05:26.392Z,93823.31
2019-01-28T03:07:55.898Z,93830.41
2019-01-28T03:10:25.490Z,93823.32
2019-01-28T03:12:54.955Z,93835.40
2019-01-28T03:15:24.424Z,93828.64
2019-01-28T03:17:53.984Z,93828.00
2019-01-28T03:20:23.412Z,93830.55
2019-01-28T03:22:55.176Z,93825.58
2019-01-28T03:25:24.674Z,93824.78
2019-01-28T03:27:54.220Z,93837.98
2019-01-28T03:30:24.314Z,93841.36
2019-01-28T03:32:53.821Z,93842.47
2019-01-28T03:35:23.306Z,93841.51
2019-01-28T03:37:52.801Z,93838.58
2019-01-28T03:40:22.500Z,93841.62
2019-01-28T03:42:52.068Z,93842.26
2019-01-28T03:45:22.461Z,93831.16
2019-01-28T03:47:51.953Z,93838.41
2019-01-28T03:50:21.453Z,93833.27
2019-01-28T03:52:51.049Z,93836.66
2019-01-28T03:55:20.711Z,93836.98
2019-01-28T03:57:50.237Z,93835.39
2019-01-28T04:00:21.790Z,93836.03
2019-01-28T04:02:51.464Z,93832.50
2019-01-28T04:05:21.453Z,93832.67
2019-01-28T04:07:50.978Z,93829.44
2019-01-28T04:10:22.239Z,93825.91
2019-01-28T04:12:52.064Z,93825.55
2019-01-28T04:15:22.593Z,93832.61
2019-01-28T04:17:52.050Z,93830.50
2019-01-28T04:20:22.315Z,93829.84
2019-01-28T04:22:51.810Z,93835.81
2019-01-28T04:25:21.293Z,93834.87
2019-01-28T04:27:50.782Z,93830.72
2019-01-28T04:30:22.084Z,93822.98
2019-01-28T04:32:51.577Z,93818.17
2019-01-28T04:35:21.045Z,93817.67
2019-01-28T04:37:50.531Z,93811.09
2019-01-28T04:40:19.989Z,93813.99
2019-01-28T04:42:49.516Z,93813.97
2019-01-28T04:45:19.303Z,93818.32
2019-01-28T04:47:49.189Z,93817.37
2019-01-28T04:50:19.953Z,93822.36
2019-01-28T04:52:49.558Z,93821.88
2019-01-28T04:55:19.337Z,93822.20
2019-01-28T04:57:48.851Z,93826.05
2019-01-28T05:00:20.489Z,93826.39
2019-01-28T05:02:50.262Z,93830.09
2019-01-28T05:05:19.883Z,93832.17
2019-01-28T05:07:49.371Z,93822.05
2019-01-28T05:10:20.372Z,93819.13
2019-01-28T05:12:49.976Z,93813.34
2019-01-28T05:15:19.888Z,93814.93
2019-01-28T05:17:49.467Z,93804.64
2019-01-28T05:20:20.574Z,93803.04
2019-01-28T05:22:50.143Z,93801.73
2019-01-28T05:25:19.914Z,93804.63
2019-01-28T05:27:49.456Z,93807.52
2019-01-28T05:30:21.077Z,93814.13
2019-01-28T05:32:50.581Z,93810.59
2019-01-28T05:35:21.694Z,93813.14
2019-01-28T05:37:51.549Z,93808.16
2019-01-28T05:40:23.972Z,93803.78
2019-01-28T05:42:53.499Z,93808.96
2019-01-28T05:45:23.823Z,93799.30
2019-01-28T05:47:53.436Z,93811.70
2019-01-28T05:50:23.158Z,93806.88
2019-01-28T05:52:52.720Z,93800.11
2019-01-28T05:55:22.224Z,93803.66
2019-01-28T05:57:51.776Z,93807.53
2019-01-28T06:00:25.666Z,93794.29
2019-01-28T06:02:55.146Z,93795.59
2019-01-28T06:05:24.810Z,93798.95
2019-01-28T06:07:54.304Z,93809.41
2019-01-28T06:10:23.771Z,93815.86
2019-01-28T06:12:53.277Z,93820.69
2019-01-28T06:15:22.765Z,93815.22
2019-01-28T06:17:52.248Z,93826.31
2019-01-28T06:20:22.911Z,93827.79
2019-01-28T06:22:52.512Z,93821.64
2019-01-28T06:25:22.329Z,93808.42
2019-01-28T06:27:51.830Z,93816.48
2019-01-28T06:30:31.347Z,93818.09
2019-01-28T06:33:00.833Z,93810.67
2019-01-28T06:35:30.428Z,93808.39
2019-01-28T06:37:59.995Z,93820.33
2019-01-28T06:40:32.024Z,93821.61
2019-01-28T06:43:01.873Z,93823.55
2019-01-28T06:45:31.532Z,93826.75
2019-01-28T06:48:01.113Z,93826.11
2019-01-28T06:50:30.625Z,93833.50
2019-01-28T06:53:00.143Z,93829.91
2019-01-28T06:55:29.971Z,93825.04
2019-01-28T06:57:59.461Z,93815.03
2019-01-28T07:00:34.336Z,93816.77
2019-01-28T07:03:04.107Z,93818.46
2019-01-28T07:05:33.609Z,93825.23
2019-01-28T07:08:03.503Z,93825.28
2019-01-28T07:10:32.998Z,93828.47
2019-01-28T07:13:02.539Z,93824.22
2019-01-28T07:15:34.522Z,93832.56
2019-01-28T07:18:04.095Z,93837.13
2019-01-28T07:20:33.600Z,93828.38
2019-01-28T07:23:03.062Z,93835.19
2019-01-28T07:25:32.568Z,93832.41
2019-01-28T07:28:02.071Z,93833.48
2019-01-28T07:30:33.798Z,93821.30
2019-01-28T07:33:03.341Z,93810.27
2019-01-28T07:35:32.809Z,93816.19
2019-01-28T07:38:02.285Z,93810.03
2019-01-28T07:40:31.748Z,93804.63
2019-01-28T07:43:01.237Z,93815.73
2019-01-28T07:45:36.146Z,93821.54
2019-01-28T07:48:06.397Z,93819.25
2019-01-28T07:50:35.897Z,93816.78
2019-01-28T07:53:05.708Z,93806.00
2019-01-28T07:55:35.212Z,93819.98
2019-01-28T07:58:05.711Z,93822.98
2019-01-28T08:00:35.158Z,93808.38
2019-01-28T08:03:05.068Z,93798.23
2019-01-28T08:05:34.671Z,93781.38
2019-01-28T08:08:04.355Z,93794.72
2019-01-28T08:10:33.831Z,93806.69
2019-01-28T08:13:03.508Z,93795.90
2019-01-28T08:15:33.008Z,93799.07
2019-01-28T08:18:10.254Z,93793.53
2019-01-28T08:20:33.785Z,93772.54
2019-01-28T08:23:03.277Z,93782.37
2019-01-28T08:25:32.767Z,93779.95
2019-01-28T08:28:02.399Z,93769.04
2019-01-28T08:30:34.542Z,93756.29
2019-01-28T08:33:04.579Z,93770.81
2019-01-28T08:35:35.253Z,93768.10
2019-01-28T08:38:05.160Z,93771.20
2019-01-28T08:40:35.256Z,93753.41
2019-01-28T08:43:04.942Z,93746.56
2019-01-28T08:45:34.590Z,93751.20
2019-01-28T08:48:04.430Z,93734.45
2019-01-28T08:50:34.060Z,93755.34
2019-01-28T08:53:03.544Z,93746.05
2019-01-28T08:55:33.993Z,93749.45
2019-01-28T08:58:03.472Z,93754.08
2019-01-28T09:00:41.233Z,93743.80
2019-01-28T09:03:10.967Z,93739.59
2019-01-28T09:05:40.608Z,93721.27
2019-01-28T09:08:10.351Z,93725.84
2019-01-28T09:10:40.126Z,93719.94
2019-01-28T09:13:10.174Z,93706.86
2019-01-28T09:15:40.064Z,93704.66
2019-01-28T09:18:11.310Z,93709.61
2019-01-28T09:20:40.909Z,93713.50
2019-01-28T09:23:10.441Z,93718.80
2019-01-28T09:25:40.065Z,93712.75
2019-01-28T09:28:10.326Z,93694.78
2019-01-28T09:30:40.045Z,93710.06
2019-01-28T09:33:09.741Z,93715.38
2019-01-28T09:35:39.475Z,93703.33
2019-01-28T09:38:09.214Z,93707.70
2019-01-28T09:40:39.033Z,93699.04
2019-01-28T09:43:08.949Z,93702.69
2019-01-28T09:45:42.751Z,93683.31
2019-01-28T09:48:14.707Z,93685.23
2019-01-28T09:50:46.571Z,93684.75
2019-01-28T09:53:16.357Z,93665.17
2019-01-28T09:55:45.886Z,93677.56
2019-01-28T09:58:15.388Z,93686.73
2019-01-28T10:00:50.067Z,93679.44
2019-01-28T10:03:19.724Z,93678.94
2019-01-28T10:05:49.372Z,93677.80
2019-01-28T10:08:19.033Z,93673.67
2019-01-28T10:10:48.566Z,93666.92
2019-01-28T10:13:18.058Z,93668.44
2019-01-28T10:15:47.550Z,93665.84
2019-01-28T10:18:17.020Z,93671.34
2019-01-28T10:20:48.446Z,93660.02
2019-01-28T10:23:17.931Z,93647.75
2019-01-28T10:25:47.760Z,93633.92
2019-01-28T10:28:17.305Z,93647.33
2019-01-28T10:30:47.598Z,93635.72
2019-01-28T10:33:17.203Z,93634.20
2019-01-28T10:35:47.720Z,93633.61
2019-01-28T10:38:17.626Z,93618.91
2019-01-28T10:40:48.290Z,93628.28
2019-01-28T10:43:17.785Z,93630.63
2019-01-28T10:45:47.830Z,93613.63
2019-01-28T10:48:19.191Z,93604.59
2019-01-28T10:50:48.906Z,93596.86
2019-01-28T10:53:18.353Z,93589.78
2019-01-28T10:55:47.910Z,93596.13
2019-01-28T10:58:17.759Z,93588.02
2019-01-28T11:00:49.843Z,93600.25
2019-01-28T11:03:26.225Z,93590.95
2019-01-28T11:05:55.658Z,93588.66
2019-01-28T11:08:25.168Z,93580.25
2019-01-28T11:10:54.914Z,93579.80
2019-01-28T11:13:24.481Z,93582.58
2019-01-28T11:15:54.088Z,93573.70
2019-01-28T11:18:26.837Z,93572.09
2019-01-28T11:20:56.516Z,93563.19
2019-01-28T11:23:26.109Z,93575.28
2019-01-28T11:25:55.865Z,93574.66
2019-01-28T11:28:25.370Z,93566.54
2019-01-28T11:31:02.318Z,93575.40
2019-01-28T11:33:32.374Z,93560.35
2019-01-28T11:36:05.374Z,93579.61
2019-01-28T11:38:33.834Z,93558.18
2019-01-28T11:41:03.344Z,93572.53
2019-01-28T11:43:32.912Z,93558.84
2019-01-28T11:46:04.998Z,93574.23
2019-01-28T11:48:34.491Z,93557.03
2019-01-28T11:51:04.536Z,93582.13
2019-01-28T11:53:34.045Z,93556.48
2019-01-28T11:56:03.614Z,93566.53
2019-01-28T11:58:33.152Z,93555.64
2019-01-28T12:01:31.360Z,93559.34
2019-01-28T12:04:00.907Z,93561.66
2019-01-28T12:06:30.702Z,93587.36
2019-01-28T12:09:00.166Z,93573.23
2019-01-28T12:11:29.662Z,93548.25
2019-01-28T12:13:59.201Z,93547.72
2019-01-28T12:16:28.737Z,93558.55
2019-01-28T12:18:58.272Z,93555.47
2019-01-28T12:21:27.703Z,93571.97
2019-01-28T12:23:57.201Z,93564.61
2019-01-28T12:26:26.684Z,93564.11
2019-01-28T12:28:59.281Z,93556.95
2019-01-28T12:31:28.804Z,93550.14
2019-01-28T12:33:58.275Z,93543.80
2019-01-28T12:36:27.785Z,93536.66
2019-01-28T12:38:57.378Z,93541.48
2019-01-28T12:41:26.954Z,93554.74
2019-01-28T12:43:56.427Z,93551.14
2019-01-28T12:46:25.968Z,93547.53
2019-01-28T12:48:55.477Z,93532.41
2019-01-28T12:51:24.978Z,93528.31
2019-01-28T12:53:54.496Z,93514.16
2019-01-28T12:56:23.966Z,93512.81
2019-01-28T12:58:53.453Z,93500.00
2019-01-28T13:01:23.011Z,93484.46
2019-01-28T13:03:52.508Z,93476.19
2019-01-28T13:06:22.012Z,93479.63
2019-01-28T13:08:51.467Z,93478.02
2019-01-28T13:11:20.950Z,93484.52
2019-01-28T13:13:50.436Z,93445.30
2019-01-28T13:16:20.078Z,93431.95
2019-01-28T13:18:49.709Z,93438.70
2019-01-28T13:21:24.146Z,93408.37
2019-01-28T13:23:56.100Z,93421.78
2019-01-28T13:26:25.648Z,93432.36
2019-01-28T13:28:55.239Z,93432.75
2019-01-28T13:31:24.713Z,93424.91
2019-01-28T13:33:54.216Z,93439.26
2019-01-28T13:36:23.778Z,93438.63
2019-01-28T13:38:54.671Z,93436.82
2019-01-28T13:41:24.163Z,93413.17
2019-01-28T13:43:53.648Z,93443.28
2019-01-28T13:46:23.184Z,93426.12
2019-01-28T13:48:52.648Z,93405.21
2019-01-28T13:51:22.241Z,93398.38
2019-01-28T13:53:51.710Z,93420.45
2019-01-28T13:56:21.208Z,93412.28
2019-01-28T13:58:52.394Z,93400.21
2019-01-28T14:01:21.918Z,93419.18
2019-01-28T14:03:51.456Z,93404.14
2019-01-28T14:06:20.997Z,93400.92
2019-01-28T14:08:50.626Z,93382.80
2019-01-28T14:11:20.140Z,93388.74
2019-01-28T14:13:49.665Z,93395.75
2019-01-28T14:16:19.235Z,93386.33
2019-01-28T14:18:48.722Z,93400.59
2019-01-28T14:21:18.224Z,93411.48
2019-01-28T14:23:47.765Z,93420.58
2019-01-28T14:26:17.301Z,93427.34
2019-01-28T14:28:46.833Z,93422.05
2019-01-28T14:31:16.389Z,93426.72
2019-01-28T14:33:45.955Z,93415.52
2019-01-28T14:36:15.524Z,93405.88
2019-01-28T14:38:45.035Z,93421.58
2019-01-28T14:41:14.555Z,93397.30
2019-01-28T14:43:44.127Z,93413.62
2019-01-28T14:46:13.627Z,93396.83
2019-01-28T14:48:49.084Z,93405.82
2019-01-28T14:51:14.607Z,93424.99
2019-01-28T14:53:46.743Z,93414.31
2019-01-28T14:56:16.604Z,93408.74
2019-01-28T14:58:47.018Z,93412.05
2019-01-28T15:01:18.322Z,93419.54
2019-01-28T15:03:47.902Z,93419.66
2019-01-28T15:06:17.585Z,93419.28
2019-01-28T15:08:47.187Z,93407.98
2019-01-28T15:11:16.859Z,93431.06
2019-01-28T15:13:46.392Z,93436.45
2019-01-28T15:16:16.004Z,93419.58
2019-01-28T15:18:45.727Z,93433.13
2019-01-28T15:21:15.262Z,93441.53
2019-01-28T15:23:44.850Z,93440.05
2019-01-28T15:26:14.504Z,93447.12
2019-01-28T15:28:44.096Z,93454.52
2019-01-28T15:31:13.611Z,93456.61
2019-01-28T15:33:43.169Z,93457.72
2019-01-28T15:36:12.709Z,93441.04
2019-01-28T15:38:42.316Z,93446.73
2019-01-28T15:41:11.977Z,93465.20
2019-01-28T15:43:41.583Z,93438.55
2019-01-28T15:46:11.181Z,93443.34
2019-01-28T15:48:40.845Z,93455.13
2019-01-28T15:51:10.351Z,93445.34
2019-01-28T15:53:39.915Z,93447.83
2019-01-28T15:56:09.578Z,93458.61
2019-01-28T15:58:39.157Z,93453.52
2019-01-28T16:01:08.720Z,93460.73
2019-01-28T16:03:39.443Z,93467.23
2019-01-28T16:06:09.041Z,93444.83
2019-01-28T16:08:38.587Z,93448.30
2019-01-28T16:11:08.122Z,93443.30
2019-01-28T16:13:37.661Z,93447.50
2019-01-28T16:16:07.546Z,93455.67
2019-01-28T16:18:37.117Z,93459.87
2019-01-28T16:21:07.406Z,93431.32
2019-01-28T16:23:37.193Z,93442.69
2019-01-28T16:26:07.056Z,93447.07
2019-01-28T16:28:37.023Z,93470.61
2019-01-28T16:31:06.575Z,93447.88
2019-01-28T16:33:36.091Z,93426.33
2019-01-28T16:36:07.722Z,93465.17
2019-01-28T16:38:37.416Z,93456.77
2019-01-28T16:41:07.128Z,93454.50
2019-01-28T16:43:36.697Z,93455.05
2019-01-28T16:46:06.683Z,93448.63
2019-01-28T16:48:36.299Z,93468.02
2019-01-28T16:51:06.786Z,93463.63
2019-01-28T16:53:36.536Z,93444.80
2019-01-28T16:56:06.431Z,93448.93
2019-01-28T16:58:38.146Z,93462.30
2019-01-28T17:01:07.761Z,93457.22
2019-01-28T17:03:37.318Z,93446.42
2019-01-28T17:06:07.475Z,93457.72
2019-01-28T17:08:37.066Z,93481.38
2019-01-28T17:11:06.608Z,93463.13
2019-01-28T17:13:36.147Z,93477.61
2019-01-28T17:16:05.883Z,93478.23
2019-01-28T17:18:35.559Z,93482.55
2019-01-28T17:21:05.517Z,93489.22
2019-01-28T17:23:35.067Z,93491.13
2019-01-28T17:26:04.752Z,93491.93
2019-01-28T17:28:34.282Z,93489.64
2019-01-28T17:31:03.906Z,93483.55
2019-01-28T17:33:33.641Z,93495.45
2019-01-28T17:36:03.181Z,93480.98
2019-01-28T17:38:32.935Z,93471.17
2019-01-28T17:41:02.485Z,93478.58
2019-01-28T17:43:32.051Z,93476.98
2019-01-28T17:46:01.699Z,93484.46
2019-01-28T17:48:31.219Z,93481.17
2019-01-28T17:51:00.804Z,93476.36
2019-01-28T17:53:30.342Z,93483.08
2019-01-28T17:55:59.842Z,93499.84
2019-01-28T17:58:29.374Z,93496.75
2019-01-28T18:00:59.755Z,93478.77
2019-01-28T18:03:29.517Z,93487.92
2019-01-28T18:05:59.090Z,93493.66
2019-01-28T18:08:28.714Z,93502.62
2019-01-28T18:10:58.512Z,93499.41
2019-01-28T18:13:28.049Z,93496.39
2019-01-28T18:15:57.610Z,93498.00
2019-01-28T18:18:27.119Z,93498.19
2019-01-28T18:20:56.895Z,93521.65
2019-01-28T18:23:51.224Z,93503.66
2019-01-28T18:26:21.112Z,93519.30
2019-01-28T18:28:51.337Z,93519.05
2019-01-28T18:31:20.904Z,93517.39
2019-01-28T18:33:50.456Z,93513.69
2019-01-28T18:36:22.060Z,93501.62
2019-01-28T18:38:51.616Z,93514.40
2019-01-28T18:41:21.152Z,93511.24
2019-01-28T18:43:50.710Z,93522.63
2019-01-28T18:46:24.776Z,93501.67
2019-01-28T18:48:55.902Z,93522.23
2019-01-28T18:51:25.524Z,93510.62
2019-01-28T18:53:58.585Z,93521.10
2019-01-28T18:56:28.253Z,93526.58
2019-01-28T18:58:57.829Z,93529.64
2019-01-28T19:01:28.377Z,93528.81
2019-01-28T19:03:57.930Z,93550.01
2019-01-28T19:06:46.365Z,93539.08
2019-01-28T19:09:37.697Z,93538.03
2019-01-28T19:12:28.907Z,93530.87
2019-01-28T19:15:10.434Z,93535.69
2019-01-28T19:17:55.484Z,93537.14
2019-01-28T19:20:36.506Z,93529.39
2019-01-28T19:23:08.984Z,93550.56
2019-01-28T19:25:38.655Z,93568.73
2019-01-28T19:28:08.179Z,93557.51
2019-01-28T19:30:37.721Z,93513.47
2019-01-28T19:33:07.414Z,93523.31
2019-01-28T19:35:37.676Z,93555.19
2019-01-28T19:38:07.658Z,93542.80
2019-01-28T19:40:37.293Z,93528.53
2019-01-28T19:43:07.125Z,93564.50
2019-01-28T19:45:36.675Z,93555.19
2019-01-28T19:48:06.846Z,93522.00
2019-01-28T19:50:36.415Z,93547.09
2019-01-28T19:53:06.407Z,93542.97
2019-01-28T19:55:36.020Z,93563.17
2019-01-28T19:58:05.810Z,93562.08
2019-01-28T20:00:35.375Z,93524.96
2019-01-28T20:03:06.719Z,93547.45
2019-01-28T20:05:36.375Z,93561.25
2019-01-28T20:08:06.101Z,93569.81
2019-01-28T20:10:35.628Z,93556.11
2019-01-28T20:13:07.320Z,93564.02
2019-01-28T20:15:37.069Z,93576.13
2019-01-28T20:18:06.717Z,93551.98
2019-01-28T20:20:36.609Z,93545.86
2019-01-28T20:23:06.266Z,93554.10
2019-01-28T20:25:36.192Z,93570.75
2019-01-28T20:28:05.887Z,93589.73
2019-01-28T20:30:35.739Z,93551.95
2019-01-28T20:33:05.833Z,93518.34
2019-01-28T20:35:35.684Z,93561.36
2019-01-28T20:38:05.603Z,93572.30
2019-01-28T20:40:36.102Z,93567.37
2019-01-28T20:43:06.801Z,93552.53
2019-01-28T20:45:45.031Z,93549.70
2019-01-28T20:48:11.506Z,93556.40
2019-01-28T20:50:50.677Z,93546.92
2019-01-28T20:53:20.811Z,93555.35
2019-01-28T20:55:51.645Z,93549.92
2019-01-28T20:58:21.317Z,93562.88
2019-01-28T21:00:53.210Z,93568.01
2019-01-28T21:03:22.719Z,93559.05
2019-01-28T21:05:52.224Z,93559.15
2019-01-28T21:08:21.801Z,93548.09
2019-01-28T21:10:51.358Z,93552.10
2019-01-28T21:13:20.905Z,93539.94
2019-01-28T21:15:50.744Z,93541.70
2019-01-28T21:18:20.513Z,93569.42
2019-01-28T21:20:50.140Z,93579.45
2019-01-28T21:23:19.646Z,93573.34
2019-01-28T21:25:49.303Z,93561.09
2019-01-28T21:28:18.838Z,93565.73
2019-01-28T21:30:48.395Z,93557.84
2019-01-28T21:33:17.931Z,93545.27
2019-01-28T21:35:59.599Z,93581.70
2019-01-28T21:38:49.568Z,93581.28
2019-01-28T21:41:19.461Z,93559.91
2019-01-28T21:43:49.017Z,93588.14
2019-01-28T21:46:18.933Z,93572.42
2019-01-28T21:48:49.058Z,93554.52
2019-01-28T21:51:18.592Z,93586.03
2019-01-28T21:53:51.332Z,93573.84
2019-01-28T21:56:20.859Z,93584.34
2019-01-28T21:58:50.602Z,93585.58
2019-01-28T22:01:20.258Z,93580.14
2019-01-28T22:03:49.814Z,93572.27
2019-01-28T22:06:19.327Z,93563.66
2019-01-28T22:08:48.858Z,93573.87
2019-01-28T22:11:18.372Z,93591.96
2019-01-28T22:13:47.906Z,93590.27
2019-01-28T22:16:17.685Z,93573.83
2019-01-28T22:18:47.220Z,93581.33
2019-01-28T22:21:16.857Z,93559.52
2019-01-28T22:23:46.431Z,93583.83
2019-01-28T22:26:15.951Z,93579.63
2019-01-28T22:28:45.493Z,93600.70
2019-01-28T22:31:15.016Z,93577.60
2019-01-28T22:33:44.525Z,93579.03
2019-01-28T22:36:14.380Z,93580.33
2019-01-28T22:38:45.091Z,93582.27
2019-01-28T22:41:15.216Z,93606.84
2019-01-28T22:43:44.747Z,93566.49
2019-01-28T22:46:14.278Z,93598.36
2019-01-28T22:48:43.809Z,93572.73
2019-01-28T22:51:13.375Z,93602.67
2019-01-28T22:53:42.922Z,93607.98
2019-01-28T22:56:12.407Z,93553.56
2019-01-28T22:58:41.904Z,93548.62
2019-01-28T23:01:30.752Z,93581.27
2019-01-28T23:04:00.459Z,93547.26
2019-01-28T23:06:29.991Z,93568.36
2019-01-28T23:08:59.555Z,93596.10
2019-01-28T23:11:29.104Z,93585.59
2019-01-28T23:13:58.745Z,93576.58
2019-01-28T23:16:28.310Z,93601.77
2019-01-28T23:18:57.811Z,93585.91
2019-01-28T23:21:27.416Z,93597.24
2019-01-28T23:23:56.947Z,93611.51
2019-01-28T23:26:26.496Z,93595.64
2019-01-28T23:28:56.015Z,93602.09
2019-01-28T23:31:25.536Z,93597.45
2019-01-28T23:33:56.495Z,93570.47
2019-01-28T23:36:26.046Z,93594.77
2019-01-28T23:38:55.569Z,93590.82
2019-01-28T23:41:25.091Z,93592.64
2019-01-28T23:43:54.625Z,93606.87
2019-01-28T23:46:24.122Z,93578.64
2019-01-28T23:48:53.654Z,93589.59
2019-01-28T23:51:23.172Z,93580.20
2019-01-28T23:53:52.782Z,93578.29
2019-01-28T23:56:22.270Z,93601.45
2019-01-28T23:58:51.790Z,93609.41
